GMTT Airport Information

Runway Information
Runway 07 Length 6562 ft width 98 ft
Elevation 0 ft Threshold 0 ft Heading 69
Runway 25 Length 6562 ft Width 98 ft
Elevation 0 ft Threshold 0 ft Heading 249
Runway 10 Length 11483 ft width 148 ft
Elevation 20 ft Threshold 0 ft Heading 96
Runway 28 Length 11483 ft Width 148 ft
Elevation 62 ft Threshold 1640 ft Heading 276
Airport Frequencies
Type APP Name TANGER APP Frequency 121.2 MHZ
Type TWR Name TANGER TWR Frequency 119.5 MHZ
Airport Navaids
Type VOR-DME Name Tanger Frequency 115900 KHZ
Airport Weather Information & NOTAM
ADDS - METARS form results

(0212 UTC 23 January 2022)
Data provider http://aviationweather.gov/metar/data/
 
METAR text: GMTT 230200Z 08019KT CAVOK 14/09 Q1020 NOSIG
Conditions at: GMTT (TANGIER/BOUKHALF, MA) observed 0200 UTC 23 January 2022
Temperature: 14.0°C (57°F)
Dewpoint: 9.0°C (48°F) [RH = 72%]
Pressure (altimeter): 30.12 inches Hg (1020.0 mb)
Winds: from the E (80 degrees) at 22 MPH (19 knots; 9.8 m/s)
Visibility: 6 or more miles (10+ km)
Ceiling: ceiling and visibility are OK
Clouds: unknown
Weather: no significant weather observed at this time

METAR text: GMTT 230130Z 08021KT CAVOK 14/09 Q1020 NOSIG
Conditions at: GMTT (TANGIER/BOUKHALF, MA) observed 0130 UTC 23 January 2022
Temperature: 14.0°C (57°F)
Dewpoint: 9.0°C (48°F) [RH = 72%]
Pressure (altimeter): 30.12 inches Hg (1020.0 mb)
Winds: from the E (80 degrees) at 24 MPH (21 knots; 10.8 m/s)
Visibility: 6 or more miles (10+ km)
Ceiling: ceiling and visibility are OK
Clouds: unknown
Weather: no significant weather observed at this time

Forecast for: GMTT (TANGIER/BOUKHALF, MA)
Text: TAF GMTT 222300Z 2300/2406 09018KT CAVOK
Forecast period: 0000 UTC 23 January 2022 to 0600 UTC 24 January 2022
Forecast type: FROM: standard forecast or significant change
Winds: from the E (90 degrees) at 21 MPH (18 knots; 9.3 m/s)
Visibility: 6 or more miles (10+ km)
Ceiling: unknown
Clouds: missing
Weather: NSW  (no significant weather)